Time;durP1;ratioP1;P1;durP2;ratioP2;P2;SDS_P1;SDS_P2;PMS_P1;PMS_P2;Temp;Humidity;BMP_temperature;BMP_pressure;BME280_temperature;BME280_humidity;BME280_pressure;Samples;Min_cycle;Max_cycle;Signal;HPM_P1;HPM_P2
2022/09/01 00:00:12;;;;;;;8.90;6.90;;;15.00;99.90;;;;;;4996293;28;20661;-81
2022/09/01 00:02:39;;;;;;;9.60;8.37;;;15.10;99.90;;;;;;4993808;28;20629;-81
2022/09/01 00:05:07;;;;;;;7.60;6.80;;;15.20;99.90;;;;;;4992092;28;20759;-81
2022/09/01 00:07:35;;;;;;;8.93;7.33;;;15.20;99.90;;;;;;4990574;28;20625;-80
2022/09/01 00:10:06;;;;;;;7.63;6.93;;;15.20;99.90;;;;;;4991297;28;20716;-81
2022/09/01 00:12:34;;;;;;;8.17;6.53;;;15.20;99.90;;;;;;4992842;28;21226;-81
2022/09/01 00:15:01;;;;;;;12.10;7.23;;;15.30;99.90;;;;;;4992696;28;20672;-81
2022/09/01 00:17:29;;;;;;;9.13;6.60;;;15.30;99.90;;;;;;4992143;28;20661;-81
2022/09/01 00:19:56;;;;;;;8.33;6.90;;;15.30;99.90;;;;;;4992103;28;20631;-80
2022/09/01 00:22:22;;;;;;;9.67;8.00;;;15.40;99.90;;;;;;4992069;28;20752;-81
2022/09/01 00:24:51;;;;;;;7.57;6.80;;;15.40;99.90;;;;;;4992411;28;20691;-81
2022/09/01 00:27:18;;;;;;;7.13;6.50;;;15.40;99.90;;;;;;4990828;28;20714;-81
2022/09/01 00:29:44;;;;;;;7.40;6.67;;;15.40;99.90;;;;;;4991512;28;20673;-81
2022/09/01 00:32:13;;;;;;;7.00;6.20;;;15.40;99.90;;;;;;4990138;28;20723;-81
2022/09/01 00:34:40;;;;;;;8.80;6.43;;;15.50;99.90;;;;;;4989552;28;21421;-81
2022/09/01 00:37:07;;;;;;;10.30;7.83;;;15.50;99.90;;;;;;4990118;28;20723;-81
2022/09/01 00:39:34;;;;;;;7.40;5.70;;;15.40;99.90;;;;;;4990782;28;20714;-81
2022/09/01 00:42:04;;;;;;;8.67;6.03;;;15.50;99.90;;;;;;4990834;28;20913;-81
2022/09/01 00:44:31;;;;;;;6.30;5.53;;;15.50;99.90;;;;;;4990052;28;20879;-80
2022/09/01 00:46:58;;;;;;;8.20;6.37;;;15.40;99.90;;;;;;4989651;28;20672;-81
2022/09/01 00:49:30;;;;;;;9.50;6.50;;;15.20;99.90;;;;;;4990276;28;20729;-81
2022/09/01 00:52:01;;;;;;;7.70;5.90;;;15.40;99.90;;;;;;4990407;28;20633;-80
2022/09/01 00:54:33;;;;;;;7.60;5.67;;;15.40;99.90;;;;;;4990564;28;21248;-81
2022/09/01 00:57:02;;;;;;;9.30;6.27;;;15.40;99.90;;;;;;4989506;28;20618;-81
2022/09/01 00:59:29;;;;;;;8.70;7.00;;;15.50;99.90;;;;;;4990679;28;20770;-80
2022/09/01 01:01:56;;;;;;;8.37;6.87;;;15.50;99.90;;;;;;4990568;28;20727;-81
2022/09/01 01:04:24;;;;;;;7.80;6.80;;;15.30;99.90;;;;;;4989515;28;20660;-81
2022/09/01 01:06:57;;;;;;;10.63;6.87;;;15.20;99.90;;;;;;4989270;28;20675;-80
2022/09/01 01:09:27;;;;;;;8.10;7.30;;;15.20;99.90;;;;;;4987602;28;21096;-81
2022/09/01 01:11:58;;;;;;;6.70;5.57;;;15.20;99.90;;;;;;4989052;28;20765;-80
2022/09/01 01:14:30;;;;;;;7.17;6.07;;;15.10;99.90;;;;;;4989127;28;20609;-81
2022/09/01 01:17:00;;;;;;;7.30;6.40;;;15.10;99.90;;;;;;4988491;28;20993;-80
2022/09/01 01:25:17;;;;;;;9.03;6.03;;;14.90;99.90;;;;;;4990621;28;20768;-81
2022/09/01 01:27:46;;;;;;;6.63;5.97;;;14.90;99.90;;;;;;4989196;28;20629;-81
2022/09/01 01:30:16;;;;;;;7.17;6.40;;;14.80;99.90;;;;;;4989467;28;20609;-81
2022/09/01 01:32:46;;;;;;;7.57;6.10;;;14.80;99.90;;;;;;4988620;28;20629;-80
2022/09/01 01:35:15;;;;;;;7.90;6.13;;;14.70;99.90;;;;;;4985750;28;20628;-81
2022/09/01 01:37:47;;;;;;;9.17;6.50;;;14.70;99.90;;;;;;4989020;28;20688;-80
2022/09/01 01:40:21;;;;;;;6.57;5.10;;;14.70;99.90;;;;;;4989162;28;21216;-80
2022/09/01 01:42:54;;;;;;;7.50;6.20;;;14.70;99.90;;;;;;4989852;28;20987;-80
2022/09/01 01:45:24;;;;;;;7.40;5.70;;;14.70;99.90;;;;;;4987250;28;20978;-81
2022/09/01 01:47:55;;;;;;;8.03;7.23;;;14.70;99.90;;;;;;4988449;28;20627;-80
2022/09/01 01:50:25;;;;;;;11.00;7.27;;;14.60;99.90;;;;;;4987827;28;20644;-80
2022/09/01 01:52:54;;;;;;;8.07;6.93;;;14.60;99.90;;;;;;4988695;28;21229;-81
2022/09/01 01:55:26;;;;;;;9.10;7.00;;;14.60;99.90;;;;;;4988368;28;20708;-81
2022/09/01 01:57:55;;;;;;;6.20;5.60;;;14.60;99.90;;;;;;4987904;28;20679;-80
2022/09/01 02:00:26;;;;;;;11.03;6.47;;;14.60;99.90;;;;;;4976391;28;20637;-81
2022/09/01 02:02:54;;;;;;;6.97;5.10;;;14.70;99.90;;;;;;4988967;28;20632;-80
2022/09/01 02:05:24;;;;;;;6.37;5.27;;;14.80;99.90;;;;;;4988117;28;20628;-81
2022/09/01 02:07:55;;;;;;;8.13;7.23;;;14.80;99.90;;;;;;4987886;28;20663;-81
2022/09/01 02:10:26;;;;;;;7.73;6.93;;;14.80;99.90;;;;;;4988341;28;21333;-81
2022/09/01 02:12:53;;;;;;;7.43;5.97;;;14.90;99.90;;;;;;4989003;28;20601;-80
2022/09/01 02:15:20;;;;;;;7.73;6.40;;;14.90;99.90;;;;;;4988668;28;20625;-81
2022/09/01 02:17:49;;;;;;;7.27;6.57;;;14.90;99.90;;;;;;4988266;28;20661;-80
2022/09/01 02:20:16;;;;;;;7.50;5.63;;;14.90;99.90;;;;;;4988491;28;20613;-81
2022/09/01 02:22:44;;;;;;;8.60;6.47;;;14.90;99.90;;;;;;4983299;28;20630;-80
2022/09/01 02:25:15;;;;;;;9.17;5.90;;;14.70;99.90;;;;;;4984186;28;20637;-81
2022/09/01 02:27:48;;;;;;;8.57;5.63;;;14.70;99.90;;;;;;4979509;28;20707;-79
2022/09/01 02:30:16;;;;;;;8.90;7.20;;;15.00;99.90;;;;;;4988939;28;20605;-81
2022/09/01 02:32:43;;;;;;;8.80;7.13;;;14.80;99.90;;;;;;4991353;28;20720;-81
2022/09/01 02:35:12;;;;;;;7.03;6.10;;;14.80;99.90;;;;;;4992669;28;20639;-80
2022/09/01 02:37:40;;;;;;;7.00;6.30;;;14.80;99.90;;;;;;4979440;28;20750;-81
2022/09/01 02:40:10;;;;;;;8.47;6.80;;;14.80;99.90;;;;;;4988723;28;20648;-80
2022/09/01 02:42:42;;;;;;;8.10;6.47;;;14.70;99.90;;;;;;4991711;28;20635;-80
2022/09/01 02:45:15;;;;;;;15.73;8.13;;;14.70;99.90;;;;;;4990945;28;20612;-80
2022/09/01 02:47:45;;;;;;;8.90;7.80;;;14.70;99.90;;;;;;4990601;28;20723;-81
2022/09/01 02:50:15;;;;;;;6.53;5.37;;;14.60;99.90;;;;;;4991266;28;20880;-80
2022/09/01 02:52:44;;;;;;;6.90;6.30;;;14.50;99.90;;;;;;4991565;28;20745;-80
2022/09/01 02:55:12;;;;;;;7.80;6.43;;;14.30;99.90;;;;;;4991363;28;20625;-80
2022/09/01 02:57:39;;;;;;;6.03;5.27;;;14.20;99.90;;;;;;4990935;28;20635;-79
2022/09/01 03:00:19;;;;;;;6.43;4.83;;;14.20;99.90;;;;;;4983057;28;20622;-80
2022/09/01 03:02:51;;;;;;;8.37;6.23;;;14.00;99.90;;;;;;4991273;28;20664;-80
2022/09/01 03:05:24;;;;;;;7.93;5.90;;;14.10;99.90;;;;;;4991064;28;20629;-81
2022/09/01 03:07:55;;;;;;;11.03;6.47;;;14.10;99.90;;;;;;4990379;28;20734;-80
2022/09/01 03:10:31;;;;;;;8.00;6.40;;;14.10;99.90;;;;;;4990834;28;20647;-81
2022/09/01 03:13:00;;;;;;;7.70;6.90;;;14.00;99.90;;;;;;4991070;28;20640;-80
2022/09/01 03:15:29;;;;;;;6.77;6.07;;;14.00;99.90;;;;;;4991395;28;20646;-80
2022/09/01 03:17:58;;;;;;;10.53;8.27;;;14.00;99.90;;;;;;4991014;28;20627;-80
2022/09/01 03:20:25;;;;;;;9.17;5.43;;;14.00;99.90;;;;;;4991520;28;21016;-80
2022/09/01 03:22:52;;;;;;;7.30;5.43;;;14.00;99.90;;;;;;4991345;28;20732;-80
2022/09/01 03:25:19;;;;;;;9.63;7.23;;;14.00;99.90;;;;;;4991437;28;20675;-80
2022/09/01 03:27:47;;;;;;;8.03;6.47;;;14.00;99.90;;;;;;4990090;28;20697;-80
2022/09/01 03:30:14;;;;;;;6.07;5.43;;;14.10;99.90;;;;;;4990341;28;21294;-79
2022/09/01 03:32:43;;;;;;;6.77;6.17;;;13.90;99.90;;;;;;4991391;28;21448;-80
2022/09/01 03:35:11;;;;;;;10.80;6.83;;;13.90;99.90;;;;;;4990690;28;20727;-80
2022/09/01 03:37:38;;;;;;;8.10;6.77;;;13.90;99.90;;;;;;4990603;28;20938;-80
2022/09/01 03:40:08;;;;;;;7.57;6.80;;;14.00;99.90;;;;;;4988652;28;21192;-81
2022/09/01 03:42:36;;;;;;;8.20;7.00;;;13.90;99.90;;;;;;4970428;28;21213;-78
2022/09/01 03:45:08;;;;;;;8.00;5.90;;;13.90;99.90;;;;;;4971215;28;20617;-81
2022/09/01 03:47:39;;;;;;;10.07;8.07;;;13.80;99.90;;;;;;4989181;28;20686;-81
2022/09/01 03:50:19;;;;;;;8.10;6.20;;;13.70;99.90;;;;;;4978484;28;20636;-80
2022/09/01 03:52:48;;;;;;;8.37;6.70;;;13.80;99.90;;;;;;4989991;28;20635;-80
2022/09/01 03:55:17;;;;;;;9.27;6.17;;;13.80;99.90;;;;;;4990258;28;20621;-80
2022/09/01 03:57:46;;;;;;;8.63;7.00;;;13.80;99.90;;;;;;4989315;28;20784;-81
2022/09/01 04:00:19;;;;;;;8.13;7.30;;;13.80;99.90;;;;;;4977317;28;20728;-80
2022/09/01 04:02:49;;;;;;;7.40;6.53;;;13.70;99.90;;;;;;4990287;28;20987;-80
2022/09/01 04:05:18;;;;;;;8.37;5.83;;;13.70;99.90;;;;;;4986742;28;20634;-81
2022/09/01 04:07:46;;;;;;;7.83;6.27;;;13.70;99.90;;;;;;4988825;28;21311;-80
2022/09/01 04:10:14;;;;;;;9.80;7.83;;;13.70;99.90;;;;;;4984736;28;20995;-81
2022/09/01 04:12:41;;;;;;;11.30;5.97;;;13.70;99.90;;;;;;4984515;28;20625;-79
2022/09/01 04:15:08;;;;;;;8.67;7.80;;;13.70;99.90;;;;;;4989763;28;20613;-80
2022/09/01 04:20:22;;;;;;;8.13;7.33;;;13.60;99.90;;;;;;4980845;28;20951;-80
2022/09/01 04:22:50;;;;;;;10.70;8.00;;;13.60;99.90;;;;;;4986473;28;20644;-80
2022/09/01 04:25:21;;;;;;;8.53;7.63;;;13.60;99.90;;;;;;4984684;28;20628;-81
2022/09/01 04:27:49;;;;;;;8.37;6.63;;;13.60;99.90;;;;;;4977171;28;20800;-80
2022/09/01 04:30:16;;;;;;;11.47;7.83;;;13.60;99.90;;;;;;4976515;28;20744;-80
2022/09/01 04:32:45;;;;;;;8.30;6.70;;;13.60;99.90;;;;;;4989790;28;20672;-80
2022/09/01 04:35:15;;;;;;;11.00;6.07;;;13.30;99.90;;;;;;4988587;28;20621;-79
2022/09/01 04:37:45;;;;;;;9.97;6.10;;;13.50;99.90;;;;;;4988458;28;20687;-80
2022/09/01 04:40:13;;;;;;;6.97;6.27;;;13.70;99.90;;;;;;4989111;28;20682;-78
2022/09/01 04:42:40;;;;;;;10.37;6.90;;;13.50;99.90;;;;;;4988109;28;20633;-78
2022/09/01 04:45:09;;;;;;;8.13;7.33;;;13.50;99.90;;;;;;4988411;28;20633;-78
2022/09/01 04:47:40;;;;;;;10.70;7.70;;;13.60;99.90;;;;;;4986936;28;20796;-78
2022/09/01 04:50:12;;;;;;;9.00;7.43;;;13.50;99.90;;;;;;4988406;28;21238;-78
2022/09/01 04:52:41;;;;;;;8.90;6.97;;;13.50;99.90;;;;;;4987976;28;20633;-78
2022/09/01 04:55:16;;;;;;;7.57;6.87;;;13.50;99.90;;;;;;4988207;28;20718;-79
2022/09/01 04:57:46;;;;;;;5.10;3.97;;;13.50;99.90;;;;;;4988350;28;21165;-78
2022/09/01 05:00:21;;;;;;;8.00;6.70;;;13.50;99.90;;;;;;4980584;28;20624;-78
2022/09/01 05:02:49;;;;;;;9.83;5.77;;;13.60;99.90;;;;;;4988784;28;21276;-78
2022/09/01 05:05:16;;;;;;;8.13;6.47;;;13.60;99.90;;;;;;4989154;28;20661;-79
2022/09/01 05:07:43;;;;;;;6.87;6.27;;;13.60;99.90;;;;;;4987474;28;20750;-78
2022/09/01 05:10:11;;;;;;;6.67;6.00;;;13.70;99.90;;;;;;4988954;28;20633;-78
2022/09/01 05:12:40;;;;;;;7.00;6.00;;;13.70;99.90;;;;;;4988487;28;20661;-78
2022/09/01 05:15:08;;;;;;;7.93;7.13;;;13.70;99.90;;;;;;4988353;28;20831;-78
2022/09/01 05:17:37;;;;;;;8.30;7.07;;;13.80;99.90;;;;;;4988135;28;21167;-78
2022/09/01 05:20:05;;;;;;;8.83;6.67;;;13.80;99.90;;;;;;4988913;28;20632;-78
2022/09/01 05:22:33;;;;;;;7.73;6.87;;;13.80;99.90;;;;;;4989051;28;20687;-78
2022/09/01 05:25:11;;;;;;;7.90;7.10;;;13.90;99.90;;;;;;4988246;28;20649;-78
2022/09/01 05:27:41;;;;;;;7.67;5.60;;;13.90;99.90;;;;;;4987805;28;20665;-79
2022/09/01 05:30:09;;;;;;;6.90;6.03;;;13.90;99.90;;;;;;4972986;28;20629;-78
2022/09/01 05:32:38;;;;;;;11.97;7.80;;;13.90;99.90;;;;;;4988170;28;20649;-79
2022/09/01 05:35:07;;;;;;;8.10;5.63;;;13.90;99.90;;;;;;4981087;28;21449;-80
2022/09/01 05:37:37;;;;;;;6.20;5.47;;;14.00;99.90;;;;;;4983365;28;20634;-78
2022/09/01 05:40:08;;;;;;;7.70;6.40;;;14.00;99.90;;;;;;4987585;28;20660;-78
2022/09/01 05:42:36;;;;;;;7.73;6.30;;;14.10;99.90;;;;;;4987741;28;20629;-78
2022/09/01 05:45:05;;;;;;;7.13;5.87;;;14.00;99.90;;;;;;4987336;28;20672;-78
2022/09/01 05:47:36;;;;;;;7.13;6.03;;;14.00;99.90;;;;;;4986330;28;20660;-78
2022/09/01 05:50:04;;;;;;;11.53;6.40;;;14.00;99.90;;;;;;4988183;28;20691;-79
2022/09/01 05:52:34;;;;;;;6.90;6.20;;;14.20;99.90;;;;;;4988084;28;20629;-78
2022/09/01 05:55:01;;;;;;;6.70;6.10;;;14.20;99.90;;;;;;4981610;28;20662;-78
2022/09/01 05:57:28;;;;;;;9.57;7.40;;;14.20;99.90;;;;;;4984617;28;20684;-78
2022/09/01 05:59:54;;;;;;;7.97;7.03;;;14.20;99.90;;;;;;4987012;28;20752;-79
2022/09/01 06:02:25;;;;;;;7.83;7.03;;;14.20;99.90;;;;;;4986155;28;20743;-78
2022/09/01 06:04:55;;;;;;;8.60;7.90;;;14.20;99.90;;;;;;4987148;28;21171;-79
2022/09/01 06:07:22;;;;;;;9.90;7.60;;;14.20;99.90;;;;;;4989327;28;20740;-79
2022/09/01 06:09:51;;;;;;;7.13;6.43;;;14.20;99.90;;;;;;4991776;28;20637;-79
2022/09/01 06:12:19;;;;;;;7.27;6.37;;;14.30;99.90;;;;;;4981504;28;20683;-79
2022/09/01 06:14:47;;;;;;;7.77;6.90;;;14.30;99.90;;;;;;4986592;28;20625;-78
2022/09/01 06:17:15;;;;;;;8.13;7.33;;;14.50;99.90;;;;;;4991106;28;20635;-79
2022/09/01 06:19:43;;;;;;;8.17;7.10;;;14.50;99.90;;;;;;4986806;28;20629;-79
2022/09/01 06:22:11;;;;;;;10.00;7.07;;;14.60;99.90;;;;;;4992399;28;20972;-79
2022/09/01 06:24:39;;;;;;;7.07;6.37;;;14.60;99.90;;;;;;4991768;28;20648;-79
2022/09/01 06:27:08;;;;;;;7.53;6.80;;;14.80;99.90;;;;;;4990967;28;20763;-79
2022/09/01 06:29:38;;;;;;;8.47;6.13;;;14.90;99.90;;;;;;4981610;28;20692;-79
2022/09/01 06:32:09;;;;;;;9.97;6.07;;;14.90;99.90;;;;;;4990839;28;20627;-79
2022/09/01 06:34:36;;;;;;;8.30;7.07;;;14.90;99.90;;;;;;4975657;28;20630;-79
2022/09/01 06:37:05;;;;;;;10.17;7.60;;;15.00;99.90;;;;;;4981484;28;20731;-79
2022/09/01 06:39:33;;;;;;;10.13;7.87;;;15.10;99.90;;;;;;4991554;28;20661;-80
2022/09/01 06:42:01;;;;;;;9.50;7.60;;;15.00;99.90;;;;;;4991756;28;20671;-79
2022/09/01 06:44:30;;;;;;;8.87;7.00;;;15.20;99.90;;;;;;4990815;28;20640;-79
2022/09/01 06:46:58;;;;;;;7.00;6.30;;;15.30;99.90;;;;;;4989394;28;20728;-79
2022/09/01 06:49:31;;;;;;;7.83;5.80;;;15.30;99.90;;;;;;4987975;28;20629;-79
2022/09/01 06:51:58;;;;;;;5.40;4.43;;;15.40;99.90;;;;;;4991666;28;20640;-79
2022/09/01 06:54:26;;;;;;;8.10;6.13;;;15.50;99.90;;;;;;4992881;28;20982;-79
2022/09/01 06:56:54;;;;;;;5.63;5.13;;;16.00;99.90;;;;;;4977292;28;20649;-79
2022/09/01 06:59:22;;;;;;;6.60;5.60;;;15.70;99.90;;;;;;4978912;28;20628;-79
2022/09/01 07:01:51;;;;;;;6.07;5.47;;;15.80;99.90;;;;;;4991942;28;20703;-79
2022/09/01 07:04:20;;;;;;;6.97;5.57;;;15.90;99.90;;;;;;4993295;28;20628;-80
2022/09/01 07:06:49;;;;;;;7.07;4.70;;;15.90;99.90;;;;;;4991781;28;20629;-80
2022/09/01 07:09:16;;;;;;;5.17;4.67;;;16.00;99.90;;;;;;4978101;28;21576;-79
2022/09/01 07:11:44;;;;;;;8.03;6.10;;;16.00;99.90;;;;;;4991247;28;20711;-79
2022/09/01 07:14:11;;;;;;;7.43;6.50;;;16.10;99.90;;;;;;4993437;28;20687;-80
2022/09/01 07:16:39;;;;;;;8.10;6.10;;;16.10;99.90;;;;;;4993925;28;21117;-79
2022/09/01 07:19:10;;;;;;;4.37;3.93;;;16.20;99.90;;;;;;4994949;28;20633;-80
2022/09/01 07:21:37;;;;;;;6.50;5.10;;;16.20;99.90;;;;;;4995003;28;20653;-80
2022/09/01 07:24:05;;;;;;;5.97;5.47;;;16.30;99.90;;;;;;4982586;28;20678;-80
2022/09/01 07:26:34;;;;;;;6.03;5.43;;;16.30;99.90;;;;;;4986165;28;20645;-80
2022/09/01 07:29:04;;;;;;;7.77;5.30;;;16.30;99.90;;;;;;4993809;28;20747;-80
2022/09/01 07:31:35;;;;;;;4.97;4.43;;;16.40;99.90;;;;;;4991138;28;20804;-80
2022/09/01 07:34:05;;;;;;;7.40;4.63;;;16.50;99.90;;;;;;4991695;28;20723;-80
2022/09/01 07:36:32;;;;;;;6.80;5.43;;;16.50;99.90;;;;;;4991973;28;20629;-81
2022/09/01 07:39:00;;;;;;;5.00;4.60;;;16.70;99.90;;;;;;4992111;28;21143;-80
2022/09/01 07:41:27;;;;;;;5.50;4.30;;;16.70;99.90;;;;;;4992585;28;20629;-80
2022/09/01 07:43:55;;;;;;;4.23;3.60;;;16.80;99.90;;;;;;4990527;28;20711;-81
2022/09/01 07:46:25;;;;;;;4.40;4.00;;;16.80;99.90;;;;;;4989636;28;20632;-80
2022/09/01 07:48:54;;;;;;;4.77;4.20;;;16.90;99.90;;;;;;4989971;28;20669;-80
2022/09/01 07:51:23;;;;;;;4.77;4.20;;;16.90;99.90;;;;;;4992110;28;20651;-81
2022/09/01 07:53:50;;;;;;;5.10;4.60;;;16.90;99.90;;;;;;4991342;28;20672;-80
2022/09/01 07:56:19;;;;;;;6.27;5.43;;;16.90;99.90;;;;;;4980437;28;20733;-82
2022/09/01 07:58:48;;;;;;;5.17;3.90;;;17.00;99.90;;;;;;4989263;28;20613;-80
2022/09/01 08:01:17;;;;;;;6.67;4.50;;;17.10;99.90;;;;;;4983232;28;20629;-80
2022/09/01 08:03:47;;;;;;;5.67;4.60;;;17.00;99.90;;;;;;4991743;28;20639;-80
2022/09/01 08:06:18;;;;;;;9.50;5.03;;;17.00;99.90;;;;;;4991044;28;20633;-80
2022/09/01 08:08:45;;;;;;;5.47;4.87;;;17.10;99.90;;;;;;4990625;28;20664;-80
2022/09/01 08:11:18;;;;;;;6.43;5.43;;;17.10;99.90;;;;;;4992465;28;20704;-80
2022/09/01 08:13:46;;;;;;;7.37;5.50;;;17.10;99.90;;;;;;4990738;28;20639;-80
2022/09/01 08:16:13;;;;;;;5.90;4.87;;;17.20;99.90;;;;;;4980075;28;20629;-80
2022/09/01 08:18:40;;;;;;;5.87;5.10;;;17.10;99.90;;;;;;4990834;28;20672;-80
2022/09/01 08:21:10;;;;;;;7.10;5.17;;;17.20;99.90;;;;;;4992221;28;20751;-80
2022/09/01 08:23:38;;;;;;;6.17;4.53;;;17.30;99.90;;;;;;4992756;28;20617;-80
2022/09/01 08:26:06;;;;;;;6.80;4.43;;;17.30;99.90;;;;;;4990583;28;20624;-82
2022/09/01 08:28:33;;;;;;;7.50;5.10;;;17.40;99.90;;;;;;4988821;28;20665;-81
2022/09/01 08:31:03;;;;;;;5.07;3.63;;;17.40;99.90;;;;;;4990401;28;20725;-81
2022/09/01 08:33:34;;;;;;;4.60;3.90;;;17.40;99.90;;;;;;4989199;28;21037;-80
2022/09/01 08:36:01;;;;;;;8.40;4.43;;;17.40;99.90;;;;;;4977561;28;21313;-81
2022/09/01 08:38:29;;;;;;;5.47;4.53;;;17.50;99.90;;;;;;4988218;28;20645;-80
2022/09/01 08:40:58;;;;;;;7.03;4.93;;;17.50;99.90;;;;;;4987680;28;20683;-80
2022/09/01 08:43:46;;;;;;;5.40;4.90;;;17.50;99.90;;;;;;4988631;28;20629;-81
2022/09/01 08:46:16;;;;;;;6.43;5.50;;;17.60;99.90;;;;;;4987322;28;20621;-81
2022/09/01 08:48:46;;;;;;;7.87;5.63;;;17.70;99.90;;;;;;4986721;28;20688;-81
2022/09/01 08:51:21;;;;;;;7.27;4.73;;;17.60;99.90;;;;;;4988625;28;20625;-80
2022/09/01 08:54:03;;;;;;;5.30;4.80;;;17.70;99.90;;;;;;4989227;28;20633;-80
2022/09/01 08:56:36;;;;;;;7.40;4.60;;;17.60;99.90;;;;;;4988075;28;20637;-81
2022/09/01 08:59:04;;;;;;;4.53;3.77;;;17.70;99.90;;;;;;4987915;28;20637;-80
2022/09/01 09:01:38;;;;;;;6.37;4.90;;;17.60;99.90;;;;;;4988273;28;20621;-81
2022/09/01 09:04:30;;;;;;;4.90;4.50;;;17.60;99.90;;;;;;4988654;28;21198;-81
2022/09/01 09:07:06;;;;;;;7.30;3.60;;;17.70;99.90;;;;;;4975173;28;21004;-80
2022/09/01 09:09:41;;;;;;;6.80;4.83;;;17.80;99.90;;;;;;4973033;28;20684;-81
2022/09/01 09:12:27;;;;;;;5.20;3.50;;;17.90;99.90;;;;;;4988568;28;20687;-81
2022/09/01 09:15:09;;;;;;;4.27;3.57;;;18.00;99.90;;;;;;4987793;28;21112;-81
2022/09/01 09:17:41;;;;;;;5.37;3.97;;;18.10;99.90;;;;;;4968109;28;20633;-81
2022/09/01 09:20:09;;;;;;;5.07;4.50;;;18.10;99.90;;;;;;4982661;28;20633;-81
2022/09/01 09:22:36;;;;;;;4.90;3.77;;;18.20;99.90;;;;;;4988509;28;20633;-81
2022/09/01 09:25:08;;;;;;;5.50;4.10;;;18.20;99.90;;;;;;4987446;28;21187;-81
2022/09/01 09:27:38;;;;;;;7.60;3.50;;;18.20;99.90;;;;;;4987346;28;20621;-80
2022/09/01 09:30:08;;;;;;;4.77;3.93;;;18.10;99.90;;;;;;4988113;28;20669;-81
2022/09/01 09:32:48;;;;;;;3.63;3.33;;;18.30;99.90;;;;;;4982120;28;20740;-81
2022/09/01 09:35:26;;;;;;;4.03;3.27;;;18.50;99.90;;;;;;4989991;28;20625;-81
2022/09/01 09:37:53;;;;;;;6.83;4.73;;;18.60;99.90;;;;;;4987260;28;20640;-81
2022/09/01 09:40:23;;;;;;;5.33;3.37;;;18.60;99.90;;;;;;4989876;28;20704;-81
2022/09/01 09:43:05;;;;;;;3.07;2.80;;;18.60;99.90;;;;;;4987669;28;20672;-80
2022/09/01 09:45:34;;;;;;;5.63;4.13;;;18.70;99.90;;;;;;4988803;28;20637;-81
2022/09/01 09:48:06;;;;;;;4.83;4.00;;;18.80;99.90;;;;;;4987594;28;20746;-82
2022/09/01 09:50:37;;;;;;;5.33;4.50;;;18.70;99.90;;;;;;4988166;28;20635;-81
2022/09/01 09:53:14;;;;;;;4.53;3.70;;;18.80;99.90;;;;;;4972331;28;21080;-82
2022/09/01 09:55:57;;;;;;;3.90;3.50;;;18.70;99.90;;;;;;4978209;28;20621;-82
2022/09/01 09:58:26;;;;;;;2.57;2.37;;;18.80;99.90;;;;;;4988924;28;21253;-82
2022/09/01 10:01:09;;;;;;;6.77;3.70;;;18.70;99.90;;;;;;4972123;28;20689;-83
2022/09/01 10:03:43;;;;;;;4.97;3.90;;;18.60;99.90;;;;;;4968348;28;20725;-83
2022/09/01 10:06:28;;;;;;;3.30;2.80;;;18.70;99.90;;;;;;4979882;28;20747;-83
2022/09/01 10:08:57;;;;;;;4.47;3.40;;;18.80;99.90;;;;;;4986472;28;20669;-83
2022/09/01 10:11:36;;;;;;;4.30;3.90;;;18.90;99.90;;;;;;4988064;28;20621;-84
2022/09/01 10:14:06;;;;;;;4.17;3.50;;;18.90;99.90;;;;;;4987114;28;20617;-83
2022/09/01 10:16:37;;;;;;;3.13;2.50;;;19.00;99.90;;;;;;4986802;28;21037;-84
2022/09/01 10:19:07;;;;;;;2.47;2.27;;;19.20;99.50;;;;;;4986980;28;20629;-83
2022/09/01 10:21:37;;;;;;;2.63;2.40;;;19.00;99.30;;;;;;4986801;28;20628;-84
2022/09/01 10:24:13;;;;;;;2.50;2.30;;;19.00;99.90;;;;;;4986962;28;20648;-83
2022/09/01 10:26:43;;;;;;;4.63;3.47;;;19.00;99.90;;;;;;4986799;28;21075;-84
2022/09/01 10:29:15;;;;;;;3.40;3.10;;;19.00;99.90;;;;;;4987395;28;20671;-84
2022/09/01 10:31:42;;;;;;;3.00;2.70;;;19.10;99.90;;;;;;4987846;28;20716;-85
2022/09/01 10:34:15;;;;;;;3.30;2.90;;;19.30;98.90;;;;;;4988021;28;20633;-83
2022/09/01 10:36:43;;;;;;;2.70;2.10;;;19.40;98.30;;;;;;4967811;28;21168;-84
2022/09/01 10:39:11;;;;;;;2.60;2.40;;;19.60;97.10;;;;;;4968396;28;20640;-84
2022/09/01 10:41:49;;;;;;;2.93;2.53;;;19.70;97.30;;;;;;4985677;28;20645;-83
2022/09/01 10:44:20;;;;;;;3.20;2.90;;;19.70;96.80;;;;;;4987499;28;20629;-83
2022/09/01 10:46:48;;;;;;;3.03;2.80;;;19.80;96.90;;;;;;4986812;28;20617;-83
2022/09/01 10:49:49;;;;;;;2.37;2.17;;;19.90;96.40;;;;;;4985784;28;21164;-84
2022/09/01 10:52:49;;;;;;;3.53;2.87;;;20.00;96.90;;;;;;4988256;28;20637;-84
2022/09/01 10:55:18;;;;;;;2.40;2.00;;;20.00;96.10;;;;;;4991741;28;20664;-84
2022/09/01 10:57:58;;;;;;;2.70;2.50;;;20.10;96.00;;;;;;4990292;28;20645;-84
2022/09/01 11:00:47;;;;;;;2.90;2.60;;;20.10;96.50;;;;;;4991661;28;20732;-83
2022/09/01 11:03:36;;;;;;;2.63;2.33;;;20.20;97.00;;;;;;4991307;28;21159;-84
2022/09/01 11:06:04;;;;;;;2.70;2.47;;;20.20;96.10;;;;;;4986670;28;20630;-84
2022/09/01 11:08:43;;;;;;;3.20;2.90;;;20.20;96.60;;;;;;4971048;28;20689;-83
2022/09/01 11:11:26;;;;;;;2.50;2.30;;;20.40;96.80;;;;;;4972094;28;20637;-84
2022/09/01 11:13:57;;;;;;;3.60;2.60;;;20.40;95.50;;;;;;4974898;28;20629;-84
2022/09/01 11:16:35;;;;;;;2.60;2.40;;;20.60;95.00;;;;;;4990546;28;20732;-84
2022/09/01 11:19:36;;;;;;;2.23;2.03;;;20.60;95.30;;;;;;4990670;28;20747;-84
2022/09/01 11:22:20;;;;;;;3.03;2.33;;;20.70;94.00;;;;;;4991113;28;21220;-83
2022/09/01 11:25:07;;;;;;;2.13;1.93;;;20.80;93.50;;;;;;4990036;28;20731;-84
2022/09/01 11:28:04;;;;;;;3.10;2.63;;;21.00;92.90;;;;;;4990526;28;20635;-84
2022/09/01 11:30:50;;;;;;;3.20;2.60;;;21.30;93.20;;;;;;4990880;28;20678;-83
2022/09/01 11:33:37;;;;;;;3.87;2.40;;;21.50;93.10;;;;;;4990648;28;20629;-85
2022/09/01 11:36:06;;;;;;;2.70;2.30;;;21.60;92.60;;;;;;4977927;28;20963;-83
2022/09/01 11:38:43;;;;;;;2.23;2.03;;;21.40;92.10;;;;;;4982562;28;21205;-84
2022/09/01 11:41:24;;;;;;;2.60;2.20;;;21.40;92.30;;;;;;4991343;28;20636;-85
2022/09/01 11:43:56;;;;;;;3.27;2.97;;;21.20;91.80;;;;;;4990116;28;21583;-83
2022/09/01 11:46:29;;;;;;;2.87;2.57;;;21.10;92.20;;;;;;4987825;28;20637;-84
2022/09/01 11:48:57;;;;;;;2.10;2.00;;;21.20;93.20;;;;;;4988710;28;20765;-84
2022/09/01 11:51:24;;;;;;;4.43;4.00;;;21.10;93.70;;;;;;4980862;28;20644;-85
2022/09/01 11:53:59;;;;;;;3.77;2.80;;;21.40;94.00;;;;;;4996787;28;20656;-84
2022/09/01 11:56:28;;;;;;;2.97;2.77;;;22.00;93.40;;;;;;4970819;28;20633;-82
2022/09/01 11:58:55;;;;;;;3.03;2.83;;;22.00;92.20;;;;;;4986659;28;20623;-82
2022/09/01 12:01:30;;;;;;;2.40;2.30;;;21.80;91.90;;;;;;4990542;28;20616;-83
2022/09/01 12:04:17;;;;;;;2.67;2.47;;;22.80;90.30;;;;;;4989475;28;20659;-83
2022/09/01 12:06:53;;;;;;;2.73;2.40;;;23.60;85.90;;;;;;4988863;28;20691;-83
2022/09/01 12:09:21;;;;;;;2.73;2.53;;;24.00;84.60;;;;;;4989610;28;20664;-83
2022/09/01 12:11:47;;;;;;;3.20;2.90;;;24.20;83.30;;;;;;4988995;28;20624;-83
2022/09/01 12:14:21;;;;;;;3.27;2.97;;;23.70;83.60;;;;;;4989474;28;20684;-83
2022/09/01 12:16:57;;;;;;;2.70;2.50;;;23.00;83.50;;;;;;4987656;28;21248;-82
2022/09/01 12:19:28;;;;;;;3.20;2.70;;;22.60;85.30;;;;;;4978723;28;21071;-83
2022/09/01 12:22:01;;;;;;;3.07;2.80;;;22.40;86.60;;;;;;4989627;28;20688;-82
2022/09/01 12:24:33;;;;;;;3.53;2.87;;;22.10;86.30;;;;;;4987268;28;20629;-83
2022/09/01 12:27:01;;;;;;;3.20;2.90;;;21.80;88.40;;;;;;4987717;28;20623;-83
2022/09/01 12:29:30;;;;;;;3.23;2.60;;;21.80;89.70;;;;;;4985417;28;21071;-82
2022/09/01 12:31:58;;;;;;;2.60;2.40;;;21.70;88.30;;;;;;4988985;28;21203;-84
2022/09/01 12:34:36;;;;;;;2.50;2.30;;;21.60;90.30;;;;;;4986100;28;20621;-83
2022/09/01 12:37:08;;;;;;;2.67;2.40;;;21.70;88.80;;;;;;4988382;28;20628;-83
2022/09/01 12:39:37;;;;;;;2.87;1.90;;;21.70;86.80;;;;;;4987069;28;21001;-84
2022/09/01 12:42:11;;;;;;;2.53;2.33;;;21.50;87.60;;;;;;4986985;28;20992;-84
2022/09/01 12:44:47;;;;;;;2.67;2.43;;;21.40;86.20;;;;;;4980670;28;20617;-84
2022/09/01 12:47:47;;;;;;;2.77;2.57;;;21.30;86.80;;;;;;4986828;28;20633;-84
2022/09/01 12:50:46;;;;;;;2.63;2.40;;;21.00;88.40;;;;;;4986817;28;21253;-83
2022/09/01 12:53:34;;;;;;;2.80;2.33;;;21.20;89.40;;;;;;4987561;28;20625;-85
2022/09/01 12:56:17;;;;;;;2.90;2.70;;;21.10;90.70;;;;;;4983182;28;20645;-84
2022/09/01 12:58:51;;;;;;;3.20;3.00;;;21.20;90.90;;;;;;4983506;28;20617;-85
2022/09/01 13:01:27;;;;;;;3.10;2.70;;;21.10;90.60;;;;;;4983605;28;20696;-84
2022/09/01 13:04:14;;;;;;;3.23;2.93;;;20.90;91.10;;;;;;4985190;28;20684;-84
2022/09/01 13:06:42;;;;;;;3.03;2.73;;;20.80;90.80;;;;;;4984166;28;20665;-82
2022/09/01 13:09:09;;;;;;;3.17;2.87;;;20.80;91.10;;;;;;4978475;28;20773;-82
2022/09/01 13:11:36;;;;;;;3.40;3.10;;;20.70;91.40;;;;;;4976951;28;20687;-84
2022/09/01 13:14:03;;;;;;;2.50;2.30;;;20.70;91.90;;;;;;4983882;28;20724;-85